Ginys del Meteocat
Campanya meteocatpedra

Dades de l'estació automàtica Os de Balaguer - el Monestir d'Avellanes

?
?
Resum diari 21:30 TU
Dades diàries de l'estació meteorològica
Temperatura mitjana 15.4 °C
Temperatura màxima 21.1 °C 13:08 TU
Temperatura mínima 10.7 °C 4:56 TU
Humitat relativa mitjana 71%
Precipitació acumulada 0.0 mm
Ratxa màxima del vent (6 m) 16.6 km/h - 201º 13:05 TU
Irradiació solar global 9.9 MJ/m2

El tram horari està expressat en Temps Universal (TU). Cal sumar una hora en horari d'hivern i dues en horari d'estiu per passar a l'hora oficial.

Os de Balaguer - el Monestir d'Avellanes

Metadades estació meteorol´gica
Municipi Os de Balaguer
Comarca Noguera
Altitud 576 m
Data alta 07.07.1995
Estat actual Operativa
Dades de període
Període
TU
TM
°C
TX
°C
TN
°C
HRM
%
PPT
mm
VVM (6 m)
km/h
DVM (6 m)
graus
VVX (6 m)
km/h
RS
W/m2
00:00 - 00:30 11.6 11.9 11.3 74 0.0 2.9 100 5.8 0
00:30 - 01:00 11.4 11.8 10.9 76 0.0 2.2 82 7.2 0
01:00 - 01:30 11.6 12.2 10.9 74 0.0 2.5 59 6.5 0
01:30 - 02:00 12.0 12.3 11.6 75 0.0 3.2 55 10.1 0
02:00 - 02:30 11.4 11.8 11.1 77 0.0 3.2 63 7.6 0
02:30 - 03:00 11.1 11.4 10.9 78 0.0 3.6 53 7.2 0
03:00 - 03:30 11.5 11.7 11.2 77 0.0 5.4 91 10.8 0
03:30 - 04:00 11.0 11.5 10.8 79 0.0 2.2 70 5.4 0
04:00 - 04:30 11.3 11.4 11.1 78 0.0 2.5 31 6.8 0
04:30 - 05:00 11.2 11.6 10.7 79 0.0 2.2 84 6.5 0
05:00 - 05:30 11.1 11.2 10.9 80 0.0 1.4 37 5.0 0
05:30 - 06:00 11.5 11.9 11.1 79 0.0 3.6 26 7.6 0
06:00 - 06:30 11.9 12.2 11.8 77 0.0 2.2 35 6.5 8
06:30 - 07:00 12.4 12.6 12.2 75 0.0 2.9 83 6.5 24
07:00 - 07:30 13.0 13.7 12.6 72 0.0 2.9 47 7.9 97
07:30 - 08:00 14.2 14.6 13.8 68 0.0 2.9 39 9.7 136
08:00 - 08:30 15.0 15.9 14.6 65 0.0 3.6 22 8.6 205
08:30 - 09:00 16.3 16.6 15.8 61 0.0 1.8 18 7.2 237
09:00 - 09:30 17.1 17.6 16.6 60 0.0 3.2 62 8.3 253
09:30 - 10:00 17.4 17.7 16.6 61 0.0 2.5 230 9.0 300
10:00 - 10:30 17.0 18.3 16.4 64 0.0 2.2 251 6.8 314
10:30 - 11:00 19.2 19.9 18.3 58 0.0 3.2 237 10.8 536
11:00 - 11:30 19.1 19.8 18.8 59 0.0 4.0 246 9.0 428
11:30 - 12:00 20.4 20.9 19.8 56 0.0 3.6 219 14.8 527
12:00 - 12:30 19.9 20.5 19.6 58 0.0 4.7 230 14.0 377
12:30 - 13:00 20.1 20.3 19.8 58 0.0 5.0 254 15.5 396
13:00 - 13:30 20.7 21.1 20.2 58 0.0 5.8 257 16.6 458
13:30 - 14:00 20.8 21.0 20.3 57 0.0 5.0 266 14.0 394
14:00 - 14:30 20.6 20.9 20.3 57 0.0 5.0 258 10.4 262
14:30 - 15:00 20.3 20.3 20.2 58 0.0 3.6 265 9.4 175
15:00 - 15:30 20.4 20.8 20.2 57 0.0 3.6 262 8.6 181
15:30 - 16:00 19.8 20.4 19.4 60 0.0 3.2 229 10.1 79
16:00 - 16:30 19.3 19.4 19.1 63 0.0 1.8 224 6.1 67
16:30 - 17:00 18.4 19.0 17.4 67 0.0 1.8 235 6.1 32
17:00 - 17:30 16.7 17.5 15.7 73 0.0 1.1 232 4.3 7
17:30 - 18:00 15.4 15.9 14.9 78 0.0 0.4 342 2.5 3
18:00 - 18:30 14.5 14.8 14.3 82 0.0 0.0 146 1.4 3
18:30 - 19:00 14.5 15.1 14.2 82 0.0 1.1 131 4.3 3
19:00 - 19:30 14.6 15.2 14.4 81 0.0 2.2 9 5.4 4
19:30 - 20:00 15.1 15.5 14.4 78 0.0 3.6 44 8.3 4
20:00 - 20:30 14.1 14.6 13.5 82 0.0 3.6 62 9.0 4
20:30 - 21:00 14.2 14.7 13.8 83 0.0 1.8 108 5.0 4
21:00 - 21:30 13.8 13.9 13.8 85 0.0 2.2 21 5.4 4
21:30 - 22:00 13.6 13.9 13.4 84 0.0 2.2 49 5.4 4

Les dades en taronja només han passat un control de qualitat automàtic. Resta pendent la seva validació definitiva.